Time;durP1;ratioP1;P1;durP2;ratioP2;P2;SDS_P1;SDS_P2;PMS_P1;PMS_P2;Temp;Humidity;BMP_temperature;BMP_pressure;BME280_temperature;BME280_humidity;BME280_pressure;Samples;Min_cycle;Max_cycle;Signal;HPM_P1;HPM_P2
2021/07/03 00:00:53;;;;;;;6.70;6.20;;;;;;;;;;5076467;28;24409;-56
2021/07/03 00:03:18;;;;;;;6.60;6.10;;;;;;;;;;5074154;28;24411;-56
2021/07/03 00:05:43;;;;;;;6.40;5.90;;;;;;;;;;5081027;28;24777;-56
2021/07/03 00:08:08;;;;;;;5.57;5.17;;;;;;;;;;5078094;28;24414;-56
2021/07/03 00:10:34;;;;;;;5.10;4.70;;;;;;;;;;5084660;28;24823;-56
2021/07/03 00:12:59;;;;;;;5.95;5.55;;;;;;;;;;5082914;28;24406;-56
2021/07/03 00:15:25;;;;;;;5.90;5.40;;;;;;;;;;5079839;28;24426;-56
2021/07/03 00:17:52;;;;;;;5.00;4.70;;;;;;;;;;5074240;28;24407;-56
2021/07/03 00:20:17;;;;;;;4.93;4.63;;;;;;;;;;5081674;28;24417;-56
2021/07/03 00:22:43;;;;;;;4.82;4.47;;;;;;;;;;5081760;28;24509;-56
2021/07/03 00:25:08;;;;;;;4.70;4.30;;;;;;;;;;5068859;28;25395;-56
2021/07/03 00:27:33;;;;;;;5.20;4.80;;;;;;;;;;5067141;28;24437;-56
2021/07/03 00:29:59;;;;;;;5.30;4.90;;;;;;;;;;5065695;28;24501;-56
2021/07/03 00:32:24;;;;;;;5.00;4.63;;;;;;;;;;5080621;28;24411;-56
2021/07/03 00:34:49;;;;;;;5.27;4.87;;;;;;;;;;5070559;28;24972;-56
2021/07/03 00:37:15;;;;;;;4.53;4.23;;;;;;;;;;5076908;28;24463;-56
2021/07/03 00:39:40;;;;;;;5.30;4.90;;;;;;;;;;5068115;28;24454;-56
2021/07/03 00:42:05;;;;;;;5.70;5.30;;;;;;;;;;5073526;28;24522;-56
2021/07/03 00:44:32;;;;;;;4.77;4.47;;;;;;;;;;5070266;28;24425;-56
2021/07/03 00:46:59;;;;;;;4.57;4.28;;;;;;;;;;5078231;28;24814;-56
2021/07/03 00:49:24;;;;;;;5.00;4.60;;;;;;;;;;5071734;28;24464;-56
2021/07/03 00:51:49;;;;;;;5.10;4.70;;;;;;;;;;5079409;28;24418;-56
2021/07/03 00:54:14;;;;;;;5.15;4.65;;;;;;;;;;5071992;28;24966;-56
2021/07/03 00:56:39;;;;;;;5.50;5.10;;;;;;;;;;5081709;28;24971;-56
2021/07/03 00:59:04;;;;;;;5.30;4.90;;;;;;;;;;5066848;28;24386;-56
2021/07/03 01:01:30;;;;;;;5.20;4.82;;;;;;;;;;5082545;28;24438;-56
2021/07/03 01:03:55;;;;;;;4.88;4.57;;;;;;;;;;5066810;28;24414;-56
2021/07/03 01:06:22;;;;;;;4.40;4.10;;;;;;;;;;5069568;28;24464;-56
2021/07/03 01:08:48;;;;;;;5.00;4.60;;;;;;;;;;5076811;28;24548;-56
2021/07/03 01:11:22;;;;;;;4.78;4.47;;;;;;;;;;5081047;28;24556;-56
2021/07/03 01:13:47;;;;;;;4.40;4.10;;;;;;;;;;5066929;28;24785;-56
2021/07/03 01:16:12;;;;;;;4.80;4.30;;;;;;;;;;5070150;28;24972;-56
2021/07/03 01:18:38;;;;;;;5.10;4.70;;;;;;;;;;5066495;28;24511;-56
2021/07/03 01:21:03;;;;;;;4.87;4.57;;;;;;;;;;5084262;28;24925;-56
2021/07/03 01:23:29;;;;;;;4.70;4.30;;;;;;;;;;5077743;28;24476;-56
2021/07/03 01:25:54;;;;;;;4.70;4.30;;;;;;;;;;5082155;28;24426;-56
2021/07/03 01:28:20;;;;;;;4.60;4.30;;;;;;;;;;5068958;28;24455;-56
2021/07/03 01:30:45;;;;;;;4.70;4.30;;;;;;;;;;5081471;28;24475;-56
2021/07/03 01:33:10;;;;;;;4.53;4.22;;;;;;;;;;5076675;28;24537;-56
2021/07/03 01:35:35;;;;;;;5.10;4.60;;;;;;;;;;5067466;28;24484;-56
2021/07/03 01:38:00;;;;;;;4.65;4.25;;;;;;;;;;5077865;28;24399;-57
2021/07/03 01:40:25;;;;;;;5.17;4.57;;;;;;;;;;5074612;28;24407;-57
2021/07/03 01:42:51;;;;;;;5.65;5.10;;;;;;;;;;5082350;28;24410;-56
2021/07/03 01:45:16;;;;;;;5.30;4.90;;;;;;;;;;5081025;28;24425;-56
2021/07/03 01:47:45;;;;;;;5.80;5.30;;;;;;;;;;5072572;28;24533;-56
2021/07/03 01:50:10;;;;;;;6.55;6.10;;;;;;;;;;5078392;28;24567;-56
2021/07/03 01:52:37;;;;;;;6.47;5.97;;;;;;;;;;5082250;28;25017;-57
2021/07/03 01:55:03;;;;;;;4.90;4.50;;;;;;;;;;5086587;28;24790;-56
2021/07/03 01:57:28;;;;;;;5.30;4.90;;;;;;;;;;5084598;28;24517;-56
2021/07/03 01:59:54;;;;;;;6.03;5.53;;;;;;;;;;5089464;28;24502;-56
2021/07/03 02:02:19;;;;;;;5.30;4.90;;;;;;;;;;5071703;28;24615;-56
2021/07/03 02:04:44;;;;;;;6.47;5.90;;;;;;;;;;5075006;28;24477;-56
2021/07/03 02:07:09;;;;;;;5.73;5.33;;;;;;;;;;5078626;28;24830;-56
2021/07/03 02:09:34;;;;;;;6.10;5.60;;;;;;;;;;5075622;28;24410;-56
2021/07/03 02:11:59;;;;;;;5.80;5.30;;;;;;;;;;5089085;28;24425;-56
2021/07/03 02:14:24;;;;;;;5.10;4.73;;;;;;;;;;5081942;28;24406;-56
2021/07/03 02:16:50;;;;;;;5.68;5.28;;;;;;;;;;5072910;28;25087;-57
2021/07/03 02:19:15;;;;;;;5.93;5.43;;;;;;;;;;5075983;28;24418;-57
2021/07/03 02:21:40;;;;;;;6.25;5.75;;;;;;;;;;5077219;28;24999;-57
2021/07/03 02:24:05;;;;;;;7.68;6.32;;;;;;;;;;5074736;28;24429;-57
2021/07/03 02:26:31;;;;;;;6.80;6.30;;;;;;;;;;5080029;28;24423;-57
2021/07/03 02:28:56;;;;;;;5.63;5.20;;;;;;;;;;5079943;28;24429;-56
2021/07/03 02:31:21;;;;;;;6.47;5.97;;;;;;;;;;5081545;28;24509;-57
2021/07/03 02:33:47;;;;;;;6.77;6.20;;;;;;;;;;5088567;28;25259;-57
2021/07/03 02:36:13;;;;;;;7.03;6.43;;;;;;;;;;5087858;28;24483;-56
2021/07/03 02:38:38;;;;;;;5.50;5.00;;;;;;;;;;5076113;28;24407;-56
2021/07/03 02:41:03;;;;;;;6.83;6.10;;;;;;;;;;5075982;28;24413;-56
2021/07/03 02:43:28;;;;;;;5.80;5.30;;;;;;;;;;5068551;28;25019;-56
2021/07/03 02:45:53;;;;;;;5.90;5.40;;;;;;;;;;5076243;28;24415;-57
2021/07/03 02:48:19;;;;;;;6.30;5.70;;;;;;;;;;5065041;28;24720;-56
2021/07/03 02:50:44;;;;;;;5.50;5.00;;;;;;;;;;5071903;28;24499;-57
2021/07/03 02:53:09;;;;;;;5.50;5.10;;;;;;;;;;5074808;28;24418;-56
2021/07/03 02:55:34;;;;;;;6.55;5.95;;;;;;;;;;5085330;28;24435;-56
2021/07/03 02:57:59;;;;;;;5.60;5.20;;;;;;;;;;5084881;28;24517;-56
2021/07/03 03:00:25;;;;;;;6.00;5.47;;;;;;;;;;5073876;28;24788;-57
2021/07/03 03:02:50;;;;;;;6.10;5.60;;;;;;;;;;5071850;28;24423;-56
2021/07/03 03:05:15;;;;;;;6.60;6.00;;;;;;;;;;5072081;28;24434;-56
2021/07/03 03:07:41;;;;;;;5.53;5.13;;;;;;;;;;5070338;28;24410;-57
2021/07/03 03:10:07;;;;;;;5.00;4.60;;;;;;;;;;5086144;28;24433;-57
2021/07/03 03:12:32;;;;;;;4.80;4.40;;;;;;;;;;5086149;28;24544;-57
2021/07/03 03:14:57;;;;;;;5.20;4.60;;;;;;;;;;5080183;28;24777;-57
2021/07/03 03:17:23;;;;;;;5.53;4.70;;;;;;;;;;5079331;28;24426;-57
2021/07/03 03:19:48;;;;;;;4.20;3.90;;;;;;;;;;5071469;28;24460;-57
2021/07/03 03:22:13;;;;;;;4.97;4.57;;;;;;;;;;5088984;28;24413;-56
2021/07/03 03:24:38;;;;;;;5.30;4.80;;;;;;;;;;5076518;28;24417;-56
2021/07/03 03:27:04;;;;;;;5.70;5.20;;;;;;;;;;5079151;28;24414;-57
2021/07/03 03:29:29;;;;;;;5.70;5.30;;;;;;;;;;5068649;28;24985;-56
2021/07/03 03:31:54;;;;;;;5.70;5.20;;;;;;;;;;5079475;28;24410;-57
2021/07/03 03:34:19;;;;;;;4.67;4.30;;;;;;;;;;5078773;28;25252;-57
2021/07/03 03:36:44;;;;;;;4.90;4.50;;;;;;;;;;5081980;28;24438;-57
2021/07/03 03:39:09;;;;;;;6.03;5.53;;;;;;;;;;5077936;28;24517;-57
2021/07/03 03:41:35;;;;;;;5.20;4.80;;;;;;;;;;5082336;28;24797;-57
2021/07/03 03:44:00;;;;;;;6.25;5.65;;;;;;;;;;5075670;28;24765;-58
2021/07/03 03:46:25;;;;;;;5.10;4.70;;;;;;;;;;5074919;28;24417;-58
2021/07/03 03:48:50;;;;;;;4.20;3.90;;;;;;;;;;5072322;28;24683;-58
2021/07/03 03:51:15;;;;;;;5.40;4.90;;;;;;;;;;5067642;28;24451;-57
2021/07/03 03:53:41;;;;;;;4.70;4.30;;;;;;;;;;5075690;28;24423;-57
2021/07/03 03:56:06;;;;;;;6.30;5.70;;;;;;;;;;5082826;28;24529;-57
2021/07/03 03:58:31;;;;;;;4.57;4.17;;;;;;;;;;5076269;28;24951;-57
2021/07/03 04:00:56;;;;;;;5.00;4.50;;;;;;;;;;5071219;28;24406;-57
2021/07/03 04:03:21;;;;;;;5.60;5.10;;;;;;;;;;5084094;28;24441;-57
2021/07/03 04:05:47;;;;;;;5.20;4.80;;;;;;;;;;5071273;28;24772;-57
2021/07/03 04:08:12;;;;;;;5.47;4.97;;;;;;;;;;5085270;28;24475;-57
2021/07/03 04:10:37;;;;;;;5.90;5.50;;;;;;;;;;5074494;28;24842;-57
2021/07/03 04:13:02;;;;;;;5.03;4.60;;;;;;;;;;5084191;28;24463;-57
2021/07/03 04:15:27;;;;;;;5.00;4.63;;;;;;;;;;5082133;28;24438;-56
2021/07/03 04:17:52;;;;;;;5.50;5.00;;;;;;;;;;5073454;28;24837;-57
2021/07/03 04:20:18;;;;;;;5.07;4.67;;;;;;;;;;5077114;28;24480;-57
2021/07/03 04:22:43;;;;;;;5.75;5.25;;;;;;;;;;5067030;28;24407;-57
2021/07/03 04:25:11;;;;;;;5.07;4.67;;;;;;;;;;5074015;28;24506;-57
2021/07/03 04:27:37;;;;;;;5.63;5.22;;;;;;;;;;5070687;28;25007;-57
2021/07/03 04:30:05;;;;;;;5.60;5.10;;;;;;;;;;5076077;28;24438;-57
2021/07/03 04:32:31;;;;;;;6.50;5.80;;;;;;;;;;5076968;28;24418;-57
2021/07/03 04:34:56;;;;;;;5.20;4.80;;;;;;;;;;5074061;28;24464;-57
2021/07/03 04:37:21;;;;;;;5.40;5.00;;;;;;;;;;5086498;28;24521;-57
2021/07/03 04:39:46;;;;;;;6.18;5.57;;;;;;;;;;5085225;28;24757;-56
2021/07/03 04:42:11;;;;;;;5.85;5.45;;;;;;;;;;5076072;28;24468;-56
2021/07/03 04:44:36;;;;;;;5.83;5.33;;;;;;;;;;5073708;28;24438;-57
2021/07/03 04:47:02;;;;;;;6.00;5.50;;;;;;;;;;5067907;28;24479;-57
2021/07/03 04:49:31;;;;;;;6.10;5.60;;;;;;;;;;5078528;28;24410;-57
2021/07/03 04:51:57;;;;;;;6.20;5.70;;;;;;;;;;5075629;28;24499;-57
2021/07/03 04:54:22;;;;;;;6.20;5.80;;;;;;;;;;5073503;28;24987;-57
2021/07/03 04:56:47;;;;;;;6.43;5.93;;;;;;;;;;5081840;28;24486;-57
2021/07/03 04:59:12;;;;;;;6.10;5.60;;;;;;;;;;5074330;28;24479;-57
2021/07/03 05:01:37;;;;;;;7.78;7.07;;;;;;;;;;5075809;28;24887;-57
2021/07/03 05:04:02;;;;;;;6.10;5.60;;;;;;;;;;5079565;28;24909;-57
2021/07/03 05:06:27;;;;;;;7.00;6.40;;;;;;;;;;5079640;28;24410;-56
2021/07/03 05:08:53;;;;;;;7.57;6.88;;;;;;;;;;5077933;28;24418;-57
2021/07/03 05:11:18;;;;;;;7.53;6.40;;;;;;;;;;5066937;28;24521;-56
2021/07/03 05:13:43;;;;;;;7.90;7.20;;;;;;;;;;5070436;28;24429;-56
2021/07/03 05:16:08;;;;;;;7.65;6.95;;;;;;;;;;5078321;28;24429;-59
2021/07/03 05:18:33;;;;;;;6.43;5.90;;;;;;;;;;5069510;28;24598;-57
2021/07/03 05:20:59;;;;;;;6.73;6.00;;;;;;;;;;5067101;28;24648;-56
2021/07/03 05:23:24;;;;;;;6.63;6.13;;;;;;;;;;5078039;28;24787;-56
2021/07/03 05:25:52;;;;;;;8.50;7.00;;;;;;;;;;5068134;28;24762;-56
2021/07/03 05:28:17;;;;;;;6.90;6.30;;;;;;;;;;5066117;28;24431;-56
2021/07/03 05:30:43;;;;;;;7.33;6.43;;;;;;;;;;5068019;28;24574;-56
2021/07/03 05:33:08;;;;;;;6.90;6.30;;;;;;;;;;5066865;28;24498;-56
2021/07/03 05:35:33;;;;;;;7.03;6.50;;;;;;;;;;5067597;28;24825;-57
2021/07/03 05:37:59;;;;;;;7.17;6.47;;;;;;;;;;5073797;28;24402;-57
2021/07/03 05:40:24;;;;;;;6.43;5.93;;;;;;;;;;5074977;28;24490;-57
2021/07/03 05:42:49;;;;;;;7.13;6.53;;;;;;;;;;5084541;28;25041;-57
2021/07/03 05:45:15;;;;;;;6.70;6.10;;;;;;;;;;5079077;28;24957;-57
2021/07/03 05:47:42;;;;;;;6.60;6.00;;;;;;;;;;5070536;28;24437;-57
2021/07/03 05:50:07;;;;;;;6.50;5.90;;;;;;;;;;5072966;28;24457;-56
2021/07/03 05:52:32;;;;;;;6.60;6.10;;;;;;;;;;5069927;28;24430;-57
2021/07/03 05:54:57;;;;;;;7.13;6.60;;;;;;;;;;5069776;28;24855;-56
2021/07/03 05:57:25;;;;;;;6.60;6.00;;;;;;;;;;5072380;28;24816;-56
2021/07/03 05:59:50;;;;;;;7.10;6.50;;;;;;;;;;5067429;28;24434;-57
2021/07/03 06:02:15;;;;;;;6.40;5.90;;;;;;;;;;5070714;28;24499;-57
2021/07/03 06:04:41;;;;;;;7.97;7.17;;;;;;;;;;5077095;28;24974;-57
2021/07/03 06:07:06;;;;;;;7.10;6.60;;;;;;;;;;5071456;28;24414;-57
2021/07/03 06:09:31;;;;;;;6.80;6.30;;;;;;;;;;5066773;28;24468;-57
2021/07/03 06:11:56;;;;;;;6.40;5.90;;;;;;;;;;5068552;28;24415;-56
2021/07/03 06:14:21;;;;;;;7.07;6.47;;;;;;;;;;5066123;28;25031;-57
2021/07/03 06:16:47;;;;;;;7.28;6.57;;;;;;;;;;5081759;28;24443;-56
2021/07/03 06:19:12;;;;;;;7.40;6.80;;;;;;;;;;5074792;28;24430;-56
2021/07/03 06:21:37;;;;;;;6.60;6.00;;;;;;;;;;5069360;28;25055;-56
2021/07/03 06:24:02;;;;;;;6.63;6.03;;;;;;;;;;5069103;28;24414;-56
2021/07/03 06:26:28;;;;;;;6.53;5.93;;;;;;;;;;5074621;28;24505;-56
2021/07/03 06:28:53;;;;;;;6.80;6.20;;;;;;;;;;5082268;28;24417;-57
2021/07/03 06:31:19;;;;;;;7.33;6.63;;;;;;;;;;5067280;28;24518;-56
2021/07/03 06:33:44;;;;;;;7.03;6.43;;;;;;;;;;5077568;28;25278;-56
2021/07/03 06:36:09;;;;;;;7.03;6.40;;;;;;;;;;5070328;28;24526;-55
2021/07/03 06:38:34;;;;;;;6.93;6.38;;;;;;;;;;5069158;28;24991;-56
2021/07/03 06:40:59;;;;;;;7.20;6.60;;;;;;;;;;5079329;28;24417;-56
2021/07/03 06:43:24;;;;;;;7.20;6.60;;;;;;;;;;5084923;28;24505;-56
2021/07/03 06:45:50;;;;;;;6.82;6.22;;;;;;;;;;5083254;28;24425;-56
2021/07/03 06:48:15;;;;;;;6.90;6.33;;;;;;;;;;5072569;28;24468;-56
2021/07/03 06:50:40;;;;;;;7.70;7.00;;;;;;;;;;5070000;28;24552;-56
2021/07/03 06:53:05;;;;;;;6.50;5.93;;;;;;;;;;5070213;28;24422;-56
2021/07/03 06:55:31;;;;;;;7.30;6.70;;;;;;;;;;5070350;28;24557;-56
2021/07/03 06:57:56;;;;;;;7.17;6.67;;;;;;;;;;5076273;28;24468;-56
2021/07/03 07:00:21;;;;;;;8.35;7.55;;;;;;;;;;5082766;28;24568;-56
2021/07/03 07:02:47;;;;;;;7.40;6.83;;;;;;;;;;5079235;28;24744;-56
2021/07/03 07:05:12;;;;;;;8.32;7.63;;;;;;;;;;5081874;28;24581;-56
2021/07/03 07:07:37;;;;;;;8.87;7.97;;;;;;;;;;5080131;28;25042;-56
2021/07/03 07:10:04;;;;;;;9.07;8.15;;;;;;;;;;5067613;28;24419;-56
2021/07/03 07:12:29;;;;;;;8.40;7.60;;;;;;;;;;5067753;28;24422;-56
2021/07/03 07:14:54;;;;;;;9.20;8.30;;;;;;;;;;5082339;28;24466;-55
2021/07/03 07:17:19;;;;;;;7.80;7.10;;;;;;;;;;5068536;28;24410;-56
2021/07/03 07:19:44;;;;;;;8.97;8.17;;;;;;;;;;5076590;28;24776;-55
2021/07/03 07:22:10;;;;;;;8.00;7.20;;;;;;;;;;5068138;28;24434;-55
2021/07/03 07:24:35;;;;;;;8.00;7.30;;;;;;;;;;5067071;28;24442;-56
2021/07/03 07:27:00;;;;;;;7.23;6.63;;;;;;;;;;5074682;28;24418;-56
2021/07/03 07:29:25;;;;;;;8.13;7.33;;;;;;;;;;5082722;28;24468;-56
2021/07/03 07:31:50;;;;;;;7.43;6.83;;;;;;;;;;5078582;28;25002;-56
2021/07/03 07:34:16;;;;;;;7.90;7.20;;;;;;;;;;5077516;28;24475;-56
2021/07/03 07:36:41;;;;;;;8.90;8.00;;;;;;;;;;5077166;28;24462;-56
2021/07/03 07:39:06;;;;;;;8.90;8.00;;;;;;;;;;5066890;28;24477;-56
2021/07/03 07:41:31;;;;;;;8.10;7.30;;;;;;;;;;5067638;28;24415;-56
2021/07/03 07:43:57;;;;;;;9.13;8.33;;;;;;;;;;5067294;28;24455;-55
2021/07/03 07:46:22;;;;;;;8.95;8.15;;;;;;;;;;5065165;28;24848;-56
2021/07/03 07:48:47;;;;;;;8.10;7.30;;;;;;;;;;5067620;28;24937;-56
2021/07/03 07:51:12;;;;;;;7.77;7.10;;;;;;;;;;5072537;28;24986;-56
2021/07/03 07:53:37;;;;;;;8.10;7.50;;;;;;;;;;5087566;28;24394;-55
2021/07/03 07:56:02;;;;;;;8.40;7.60;;;;;;;;;;5077492;28;24437;-56
2021/07/03 07:58:28;;;;;;;8.20;7.40;;;;;;;;;;5087116;28;24413;-56
2021/07/03 08:00:53;;;;;;;7.70;7.10;;;;;;;;;;5080461;28;24840;-56
2021/07/03 08:03:19;;;;;;;6.90;6.40;;;;;;;;;;5067056;28;24481;-55
2021/07/03 08:05:44;;;;;;;8.17;7.53;;;;;;;;;;5070979;28;25027;-56
2021/07/03 08:08:09;;;;;;;7.50;6.80;;;;;;;;;;5086367;28;24408;-57
2021/07/03 08:10:35;;;;;;;7.60;7.00;;;;;;;;;;5072271;28;24426;-55
2021/07/03 08:13:01;;;;;;;7.00;6.50;;;;;;;;;;5069668;28;24418;-56
2021/07/03 08:15:26;;;;;;;7.70;7.00;;;;;;;;;;5066357;28;24781;-56
2021/07/03 08:17:52;;;;;;;7.90;7.20;;;;;;;;;;5070244;28;24434;-55
2021/07/03 08:20:18;;;;;;;7.90;7.30;;;;;;;;;;5073626;28;24414;-55
2021/07/03 08:22:44;;;;;;;7.10;6.60;;;;;;;;;;5068459;28;25026;-56
2021/07/03 08:25:09;;;;;;;7.20;6.50;;;;;;;;;;5072384;28;24493;-56
2021/07/03 08:27:35;;;;;;;7.30;6.70;;;;;;;;;;5066921;28;24936;-56
2021/07/03 08:30:00;;;;;;;7.35;6.75;;;;;;;;;;5069589;28;24441;-56
2021/07/03 08:32:25;;;;;;;7.20;6.60;;;;;;;;;;5069931;28;24467;-56
2021/07/03 08:34:50;;;;;;;7.27;6.77;;;;;;;;;;5070129;28;24468;-56
2021/07/03 08:37:15;;;;;;;7.15;6.40;;;;;;;;;;5066183;28;24434;-56
2021/07/03 08:39:40;;;;;;;6.97;6.47;;;;;;;;;;5065746;28;24464;-56
2021/07/03 08:42:06;;;;;;;7.43;6.83;;;;;;;;;;5071322;28;24435;-56
2021/07/03 08:44:31;;;;;;;7.47;6.87;;;;;;;;;;5066300;28;24411;-58
2021/07/03 08:46:56;;;;;;;9.73;8.63;;;;;;;;;;5070709;28;24518;-57
2021/07/03 08:49:21;;;;;;;7.90;7.20;;;;;;;;;;5065928;28;24881;-57
2021/07/03 08:51:47;;;;;;;7.40;6.80;;;;;;;;;;5066783;28;24411;-57
2021/07/03 08:54:12;;;;;;;7.40;6.70;;;;;;;;;;5080549;28;24469;-58
2021/07/03 08:56:37;;;;;;;7.20;6.60;;;;;;;;;;5076998;28;24514;-57
2021/07/03 08:59:22;;;;;;;6.55;6.05;;;;;;;;;;5082662;28;24603;-57
2021/07/03 09:01:51;;;;;;;7.18;6.68;;;;;;;;;;5073894;28;25246;-58
2021/07/03 09:04:17;;;;;;;7.10;6.60;;;;;;;;;;5080802;28;24596;-57
2021/07/03 09:06:42;;;;;;;6.77;6.20;;;;;;;;;;5075938;28;24542;-57
2021/07/03 09:09:07;;;;;;;6.50;6.00;;;;;;;;;;5074067;28;24410;-57
2021/07/03 09:11:34;;;;;;;6.82;6.18;;;;;;;;;;5069472;28;24447;-58
2021/07/03 09:14:01;;;;;;;6.68;6.07;;;;;;;;;;5066460;28;24565;-57
2021/07/03 09:16:33;;;;;;;6.65;6.15;;;;;;;;;;5066912;28;24561;-58
2021/07/03 09:18:59;;;;;;;6.50;6.00;;;;;;;;;;5073356;28;24948;-58
2021/07/03 09:21:24;;;;;;;6.80;6.30;;;;;;;;;;5080079;28;24417;-58
2021/07/03 09:23:50;;;;;;;7.00;6.50;;;;;;;;;;5077910;28;24514;-58
2021/07/03 09:26:15;;;;;;;7.03;6.43;;;;;;;;;;5067254;28;24877;-58
2021/07/03 09:28:42;;;;;;;7.10;6.60;;;;;;;;;;5066567;28;24991;-58
2021/07/03 09:31:08;;;;;;;6.83;6.30;;;;;;;;;;5075657;28;24513;-58
2021/07/03 09:33:35;;;;;;;7.30;6.70;;;;;;;;;;5066702;28;25025;-58
2021/07/03 09:36:03;;;;;;;7.00;6.50;;;;;;;;;;5080709;28;24484;-58
2021/07/03 09:38:32;;;;;;;6.97;6.38;;;;;;;;;;5084548;28;24803;-58
2021/07/03 09:41:11;;;;;;;6.80;6.30;;;;;;;;;;5086069;28;24479;-58
2021/07/03 09:43:40;;;;;;;6.60;6.10;;;;;;;;;;5085555;28;25009;-57
2021/07/03 09:46:05;;;;;;;7.15;6.65;;;;;;;;;;5085920;28;24785;-57
2021/07/03 09:48:30;;;;;;;7.37;6.70;;;;;;;;;;5080680;28;25065;-57
2021/07/03 09:51:06;;;;;;;6.70;6.20;;;;;;;;;;5068721;28;24435;-58
2021/07/03 09:53:31;;;;;;;7.07;6.47;;;;;;;;;;5081307;28;24421;-58
2021/07/03 09:55:56;;;;;;;7.33;6.73;;;;;;;;;;5070901;28;24449;-57
2021/07/03 09:58:22;;;;;;;7.05;6.55;;;;;;;;;;5069692;28;24395;-58
2021/07/03 10:00:47;;;;;;;7.97;7.30;;;;;;;;;;5069054;28;24395;-58
2021/07/03 10:03:12;;;;;;;8.73;6.70;;;;;;;;;;5070483;28;24430;-58
2021/07/03 10:05:39;;;;;;;7.60;6.80;;;;;;;;;;5074184;28;25021;-57
2021/07/03 10:08:06;;;;;;;6.90;6.40;;;;;;;;;;5083297;28;25023;-57
2021/07/03 10:10:32;;;;;;;7.13;6.63;;;;;;;;;;5089564;28;24398;-57
2021/07/03 10:13:06;;;;;;;7.75;7.15;;;;;;;;;;5084651;28;24884;-58
2021/07/03 10:15:33;;;;;;;7.35;6.85;;;;;;;;;;5083822;28;24440;-57
2021/07/03 10:18:14;;;;;;;7.80;7.00;;;;;;;;;;5071998;28;24963;-57
2021/07/03 10:20:40;;;;;;;7.50;7.00;;;;;;;;;;5069437;28;24441;-57
2021/07/03 10:23:06;;;;;;;7.15;6.55;;;;;;;;;;5069092;28;24450;-57
2021/07/03 10:25:32;;;;;;;7.30;6.70;;;;;;;;;;5068608;28;24423;-58
2021/07/03 10:27:58;;;;;;;6.85;6.35;;;;;;;;;;5082766;28;24932;-58
2021/07/03 10:30:25;;;;;;;6.70;6.20;;;;;;;;;;5089619;28;24401;-57
2021/07/03 10:32:56;;;;;;;7.28;6.70;;;;;;;;;;5089946;28;24481;-58
2021/07/03 10:35:22;;;;;;;6.63;6.13;;;;;;;;;;5087331;28;24430;-57
2021/07/03 10:37:48;;;;;;;6.90;6.38;;;;;;;;;;5092290;28;24974;-57
2021/07/03 10:40:16;;;;;;;7.10;6.60;;;;;;;;;;5093021;28;24415;-58
2021/07/03 10:42:41;;;;;;;6.87;6.37;;;;;;;;;;5069243;28;24426;-58
2021/07/03 10:45:07;;;;;;;6.43;5.97;;;;;;;;;;5082055;28;24410;-58
2021/07/03 10:47:33;;;;;;;7.10;6.50;;;;;;;;;;5083205;28;24967;-58
2021/07/03 10:49:58;;;;;;;7.05;6.55;;;;;;;;;;5087001;28;24418;-58
2021/07/03 10:52:23;;;;;;;6.90;6.30;;;;;;;;;;5086227;28;24417;-57
2021/07/03 10:54:49;;;;;;;6.70;6.20;;;;;;;;;;5082487;28;24448;-57
2021/07/03 10:57:23;;;;;;;6.68;6.18;;;;;;;;;;5076611;28;25062;-58
2021/07/03 10:59:58;;;;;;;7.00;6.30;;;;;;;;;;5074488;28;24816;-58
2021/07/03 11:02:29;;;;;;;6.95;6.45;;;;;;;;;;5079977;28;24475;-57
2021/07/03 11:04:54;;;;;;;6.72;6.22;;;;;;;;;;5081665;28;24406;-57
2021/07/03 11:07:29;;;;;;;7.10;6.60;;;;;;;;;;5068142;28;24430;-57
2021/07/03 11:10:04;;;;;;;6.63;6.13;;;;;;;;;;5068252;28;24430;-57
2021/07/03 11:12:29;;;;;;;6.70;6.20;;;;;;;;;;5072451;28;24442;-58
2021/07/03 11:14:55;;;;;;;6.33;5.93;;;;;;;;;;5074387;28;24461;-57
2021/07/03 11:17:24;;;;;;;6.90;6.40;;;;;;;;;;5073217;28;24434;-57
2021/07/03 11:19:51;;;;;;;7.00;6.50;;;;;;;;;;5072208;28;24529;-57
2021/07/03 11:22:17;;;;;;;6.93;6.40;;;;;;;;;;5079507;28;25012;-58
2021/07/03 11:24:44;;;;;;;6.30;5.80;;;;;;;;;;5082298;28;24421;-56
2021/07/03 11:27:09;;;;;;;7.20;6.70;;;;;;;;;;5087514;28;24486;-56
2021/07/03 11:29:34;;;;;;;7.20;6.50;;;;;;;;;;5077967;28;24871;-58
2021/07/03 11:32:07;;;;;;;6.50;6.10;;;;;;;;;;5075530;28;25295;-58
2021/07/03 11:34:33;;;;;;;7.33;6.80;;;;;;;;;;5070837;28;24415;-57
2021/07/03 11:36:58;;;;;;;6.50;5.90;;;;;;;;;;5070087;28;24547;-58
2021/07/03 11:39:23;;;;;;;6.50;5.90;;;;;;;;;;5080650;28;25033;-58
2021/07/03 11:41:48;;;;;;;6.82;6.22;;;;;;;;;;5070000;28;24411;-58
2021/07/03 11:44:14;;;;;;;7.30;6.60;;;;;;;;;;5077989;28;25011;-58
2021/07/03 11:46:39;;;;;;;6.83;6.33;;;;;;;;;;5067913;28;24418;-58
2021/07/03 11:49:04;;;;;;;6.80;6.20;;;;;;;;;;5068074;28;24513;-58
2021/07/03 11:51:29;;;;;;;6.97;6.47;;;;;;;;;;5065118;28;25049;-58
2021/07/03 11:53:54;;;;;;;7.43;6.83;;;;;;;;;;5067226;28;24419;-58
2021/07/03 11:56:22;;;;;;;6.93;6.43;;;;;;;;;;5084080;28;24445;-58
2021/07/03 11:58:48;;;;;;;7.03;6.43;;;;;;;;;;5103485;28;24499;-58
2021/07/03 12:01:17;;;;;;;6.45;5.95;;;;;;;;;;5098500;28;24489;-59
2021/07/03 12:03:43;;;;;;;6.90;6.40;;;;;;;;;;5087330;28;24390;-58
2021/07/03 12:06:08;;;;;;;7.00;6.50;;;;;;;;;;5069596;28;24476;-58
2021/07/03 12:08:37;;;;;;;5.90;5.40;;;;;;;;;;5085384;28;24963;-58
2021/07/03 12:11:04;;;;;;;5.60;5.20;;;;;;;;;;5082261;28;24471;-58
2021/07/03 12:13:29;;;;;;;6.50;6.00;;;;;;;;;;5073375;28;24821;-58
2021/07/03 12:15:54;;;;;;;6.80;6.10;;;;;;;;;;5069086;28;24998;-58
2021/07/03 12:18:23;;;;;;;6.20;5.80;;;;;;;;;;5066492;28;24477;-58
2021/07/03 12:20:49;;;;;;;6.80;6.30;;;;;;;;;;5066203;28;24422;-58
2021/07/03 12:23:14;;;;;;;6.65;6.20;;;;;;;;;;5069652;28;24433;-58
2021/07/03 12:25:39;;;;;;;6.38;5.78;;;;;;;;;;5068506;28;24468;-58
2021/07/03 12:28:05;;;;;;;6.50;5.90;;;;;;;;;;5067243;28;24568;-58
2021/07/03 12:30:31;;;;;;;6.50;6.00;;;;;;;;;;5080950;28;24975;-58
2021/07/03 12:33:07;;;;;;;6.57;6.17;;;;;;;;;;5073488;28;24441;-58
2021/07/03 12:35:34;;;;;;;6.72;6.22;;;;;;;;;;5068885;28;24431;-57
2021/07/03 12:37:59;;;;;;;6.05;5.55;;;;;;;;;;5071113;28;24452;-58
2021/07/03 12:40:25;;;;;;;6.10;5.60;;;;;;;;;;5070557;28;24983;-58
2021/07/03 12:42:57;;;;;;;6.72;6.25;;;;;;;;;;5067449;28;24422;-58
2021/07/03 12:45:22;;;;;;;6.70;6.20;;;;;;;;;;5064135;28;24986;-58
2021/07/03 12:47:47;;;;;;;6.50;6.00;;;;;;;;;;5071215;28;24422;-58
2021/07/03 12:50:12;;;;;;;7.05;6.45;;;;;;;;;;5085574;28;24441;-58
2021/07/03 12:52:40;;;;;;;6.90;6.40;;;;;;;;;;5083988;28;24403;-58
2021/07/03 12:55:06;;;;;;;6.60;6.20;;;;;;;;;;5067214;28;25054;-58
2021/07/03 12:57:38;;;;;;;6.47;5.97;;;;;;;;;;5075481;28;24983;-57
2021/07/03 13:00:03;;;;;;;6.35;5.95;;;;;;;;;;5082235;28;24418;-58
2021/07/03 13:02:29;;;;;;;6.57;6.07;;;;;;;;;;5069034;28;24411;-56
2021/07/03 13:04:54;;;;;;;6.43;5.93;;;;;;;;;;5066760;28;24784;-57
2021/07/03 13:07:20;;;;;;;6.20;5.80;;;;;;;;;;5067580;28;24533;-58
2021/07/03 13:09:45;;;;;;;6.22;5.72;;;;;;;;;;5064653;28;24762;-57
2021/07/03 13:12:11;;;;;;;5.90;5.50;;;;;;;;;;5070134;28;24479;-57
2021/07/03 13:14:37;;;;;;;6.40;5.90;;;;;;;;;;5071283;28;24479;-57
2021/07/03 13:17:02;;;;;;;6.00;5.60;;;;;;;;;;5066044;28;24538;-57
2021/07/03 13:19:27;;;;;;;5.70;5.30;;;;;;;;;;5067663;28;24436;-57
2021/07/03 13:21:52;;;;;;;6.00;5.50;;;;;;;;;;5065482;28;24406;-57
2021/07/03 13:24:17;;;;;;;7.00;6.50;;;;;;;;;;5067718;28;24422;-57
2021/07/03 13:26:43;;;;;;;6.80;6.30;;;;;;;;;;5084442;28;24531;-57
2021/07/03 13:29:08;;;;;;;6.27;5.87;;;;;;;;;;5075975;28;24406;-57
2021/07/03 13:31:33;;;;;;;6.10;5.70;;;;;;;;;;5073888;28;25026;-57
2021/07/03 13:33:58;;;;;;;6.45;5.95;;;;;;;;;;5081067;28;24444;-57
2021/07/03 13:36:23;;;;;;;5.90;5.50;;;;;;;;;;5069061;28;24433;-57
2021/07/03 13:38:49;;;;;;;6.30;5.80;;;;;;;;;;5070104;28;24967;-57
2021/07/03 13:41:14;;;;;;;5.90;5.50;;;;;;;;;;5072602;28;25010;-57
2021/07/03 13:43:42;;;;;;;6.00;5.40;;;;;;;;;;5069853;28;24778;-57
2021/07/03 13:46:07;;;;;;;5.60;5.20;;;;;;;;;;5068987;28;24403;-57
2021/07/03 13:48:32;;;;;;;5.82;5.43;;;;;;;;;;5070106;28;24800;-57
2021/07/03 13:50:57;;;;;;;5.70;5.30;;;;;;;;;;5074505;28;24406;-57
2021/07/03 13:53:22;;;;;;;5.60;5.20;;;;;;;;;;5081065;28;24513;-56
2021/07/03 13:55:47;;;;;;;5.77;5.37;;;;;;;;;;5068188;28;25062;-57
2021/07/03 13:58:13;;;;;;;6.00;5.50;;;;;;;;;;5078547;28;25024;-57
2021/07/03 14:00:38;;;;;;;5.53;5.13;;;;;;;;;;5072935;28;25021;-57
2021/07/03 14:03:03;;;;;;;5.40;5.00;;;;;;;;;;5068375;28;24422;-57
2021/07/03 14:05:28;;;;;;;5.55;5.15;;;;;;;;;;5070123;28;24422;-57
2021/07/03 14:07:54;;;;;;;6.00;5.50;;;;;;;;;;5073536;28;24415;-57
2021/07/03 14:10:19;;;;;;;6.90;5.53;;;;;;;;;;5064414;28;25077;-57
2021/07/03 14:12:44;;;;;;;4.93;4.63;;;;;;;;;;5065513;28;24548;-57
2021/07/03 14:15:10;;;;;;;5.83;5.43;;;;;;;;;;5075333;28;24403;-58
2021/07/03 14:17:35;;;;;;;5.80;5.40;;;;;;;;;;5067446;28;25043;-56
2021/07/03 14:20:04;;;;;;;5.18;4.78;;;;;;;;;;5077992;28;24971;-56
2021/07/03 14:22:29;;;;;;;6.28;5.80;;;;;;;;;;5079672;28;25228;-56
2021/07/03 14:24:55;;;;;;;5.00;4.70;;;;;;;;;;5065652;28;24433;-56
2021/07/03 14:27:20;;;;;;;5.20;4.90;;;;;;;;;;5072453;28;24506;-56
2021/07/03 14:29:45;;;;;;;5.50;5.10;;;;;;;;;;5081573;28;24437;-56
2021/07/03 14:32:10;;;;;;;5.70;5.30;;;;;;;;;;5080095;28;24503;-56
2021/07/03 14:34:37;;;;;;;5.60;5.20;;;;;;;;;;5073093;28;24414;-57